KFDY

Findlay Airport

Findlay, Ohio, USA
KFDY 180520Z 1806/1906 30005KT P6SM FEW003 SCT035 TEMPO 1806/1809 5SM BR BKN003 FM180900 31004KT 4SM BR BKN035 TEMPO 1809/1813 3/4SM BR BKN003 FM181400 32004KT P6SM OVC008 FM181500 36006KT P6SM BKN060 FM182100 03008KT P6SM SCT250
Issued Valid From Valid To
Aug-18 @ 05:20 UTC
(4 hours ago)
Aug-18 @ 06:00 UTC
(3 hours ago)
Aug-19 @ 06:00 UTC
(in 21 hours)
Aug-18 @ 06:00 to Aug-18 @ 09:00
KFDY 180520Z 1806/1906 30005KT P6SM FEW003 SCT035
Wind Visibility Clouds
300° at 5 knots Greater than 6 miles
  • Few at 300' AGL
  • Scattered at 3,500' AGL
Temporary Aug-18 @ 06:00 to Aug-18 @ 09:00
TEMPO 1806/1809 5SM BR BKN003
Visibility Clouds Conditions
5 miles
  • Broken at 300' AGL
  • Mist
Temporary Aug-18 @ 09:00 to Aug-18 @ 13:00
TEMPO 1809/1813 3/4SM BR BKN003
Visibility Clouds Conditions
3/4 miles
  • Broken at 300' AGL
  • Mist
From Aug-18 @ 09:00 to Aug-18 @ 14:00
FM180900 31004KT 4SM BR BKN035
Wind Visibility Clouds Conditions
310° at 4 knots 4 miles
  • Broken at 3,500' AGL
  • Mist
From Aug-18 @ 14:00 to Aug-18 @ 15:00
FM181400 32004KT P6SM OVC008
Wind Visibility Clouds
320° at 4 knots Greater than 6 miles
  • Overcast at 800' AGL
From Aug-18 @ 15:00 to Aug-18 @ 21:00
FM181500 36006KT P6SM BKN060
Wind Visibility Clouds
360° at 6 knots Greater than 6 miles
  • Broken at 6,000' AGL
From Aug-18 @ 21:00 to Aug-19 @ 06:00
FM182100 03008KT P6SM SCT250
Wind Visibility Clouds
30° at 8 knots Greater than 6 miles
  • Scattered at 25,000' AGL
KFDY 180520Z 1806/1906 30005KT P6SM FEW003 SCT035 TEMPO 1806/1809 5SM BR BKN003 FM180900 31004KT 4SM BR BKN035 TEMPO 1809/1813 3/4SM BR BKN003 FM181400 32004KT P6SM OVC008 FM181500 36006KT P6SM BKN060 FM182100 03008KT P6SM SCT250
Issued Aug-18 @ 05:20 UTC
(4 hours ago)
Valid From Aug-18 @ 06:00 UTC
(3 hours ago)
Valid To Aug-19 @ 06:00 UTC
(in 21 hours)
Aug-18 @ 06:00 - Aug-18 @ 09:00
Wind Visibility
300° at 5 knots Greater than 6 miles
Clouds
  • Few at 300' AGL
  • Scattered at 3,500' AGL
Temporary Aug-18 @ 06:00 - Aug-18 @ 09:00
Clouds
  • Broken at 300' AGL
Conditions
  • Mist
Temporary Aug-18 @ 09:00 - Aug-18 @ 13:00
Clouds
  • Broken at 300' AGL
Conditions
  • Mist
From Aug-18 @ 09:00 - Aug-18 @ 14:00
Wind Visibility
310° at 4 knots 4 miles
Clouds
  • Broken at 3,500' AGL
Conditions
  • Mist
From Aug-18 @ 14:00 - Aug-18 @ 15:00
Wind Visibility
320° at 4 knots Greater than 6 miles
Clouds
  • Overcast at 800' AGL
From Aug-18 @ 15:00 - Aug-18 @ 21:00
Wind Visibility
360° at 6 knots Greater than 6 miles
Clouds
  • Broken at 6,000' AGL
From Aug-18 @ 21:00 - Aug-19 @ 06:00
Wind Visibility
30° at 8 knots Greater than 6 miles
Clouds
  • Scattered at 25,000' AGL